Time;durP1;ratioP1;P1;durP2;ratioP2;P2;SDS_P1;SDS_P2;PMS_P1;PMS_P2;Temp;Humidity;BMP_temperature;BMP_pressure;BME280_temperature;BME280_humidity;BME280_pressure;Samples;Min_cycle;Max_cycle;Signal;HPM_P1;HPM_P2
2023/06/20 00:02:01;;;;;;;6.70;4.38;;;;;;;18.36;95.77;100665.34;6049374;28;20304;-67
2023/06/20 00:04:56;;;;;;;7.53;4.93;;;;;;;18.23;96.54;100665.25;6048965;28;20469;-67
2023/06/20 00:07:54;;;;;;;7.97;4.60;;;;;;;18.19;96.98;100663.97;6049533;28;20026;-67
2023/06/20 00:10:49;;;;;;;5.68;4.20;;;;;;;18.23;97.36;100681.38;6039619;28;20105;-67
2023/06/20 00:13:44;;;;;;;6.83;4.50;;;;;;;18.13;97.82;100679.00;6025170;28;20042;-67
2023/06/20 00:16:40;;;;;;;8.02;4.60;;;;;;;17.94;98.84;100663.59;6049340;28;20272;-67
2023/06/20 00:19:35;;;;;;;7.40;4.50;;;;;;;17.92;98.84;100670.19;6049473;28;20033;-67
2023/06/20 00:22:34;;;;;;;6.90;4.27;;;;;;;18.18;98.74;100673.06;6049253;28;20025;-67
2023/06/20 00:25:30;;;;;;;11.30;4.38;;;;;;;17.95;97.46;100667.94;6050792;28;20264;-68
2023/06/20 00:28:25;;;;;;;10.87;5.03;;;;;;;17.78;98.81;100677.28;6053936;28;20033;-67
2023/06/20 00:31:20;;;;;;;9.67;4.90;;;;;;;17.69;100.00;100695.38;6042902;28;20041;-67
2023/06/20 00:34:16;;;;;;;7.37;4.90;;;;;;;17.53;100.00;100682.22;6051818;28;20057;-67
2023/06/20 00:37:11;;;;;;;9.23;5.00;;;;;;;17.53;100.00;100692.94;6040145;28;20276;-67
2023/06/20 00:40:07;;;;;;;9.07;5.20;;;;;;;17.70;99.23;100697.03;6044270;28;20358;-67
2023/06/20 00:43:03;;;;;;;6.45;4.75;;;;;;;17.72;98.59;100700.34;6050327;28;20068;-67
2023/06/20 00:45:59;;;;;;;12.48;5.10;;;;;;;17.70;97.86;100680.94;6047266;28;20049;-67
2023/06/20 00:48:56;;;;;;;7.87;5.00;;;;;;;17.92;97.92;100689.81;6045460;28;20447;-67
2023/06/20 00:51:51;;;;;;;7.70;4.72;;;;;;;18.17;95.79;100682.97;6053121;28;20261;-67
2023/06/20 00:54:48;;;;;;;8.10;4.53;;;;;;;18.27;92.58;100690.66;6050246;28;20495;-67
2023/06/20 00:57:44;;;;;;;6.88;4.47;;;;;;;18.10;93.38;100684.78;6053264;28;20022;-67
2023/06/20 01:00:39;;;;;;;7.28;4.60;;;;;;;18.07;94.63;100687.03;6045630;28;20114;-67
2023/06/20 01:03:37;;;;;;;6.60;4.57;;;;;;;18.22;94.16;100674.31;6046116;28;20038;-67
2023/06/20 01:06:42;;;;;;;9.85;4.70;;;;;;;19.11;89.37;100665.28;6052055;28;20287;-67
2023/06/20 01:10:00;;;;;;;8.80;4.90;;;;;;;18.86;89.87;100681.09;6052957;28;20462;-67
2023/06/20 01:13:08;;;;;;;8.77;4.90;;;;;;;18.57;89.91;100678.69;6067783;28;20033;-67
2023/06/20 01:16:10;;;;;;;9.40;5.07;;;;;;;18.34;90.91;100681.63;6050406;28;20579;-67
2023/06/20 01:19:19;;;;;;;9.00;4.85;;;;;;;18.28;91.50;100678.91;6049708;28;20033;-67
2023/06/20 01:22:39;;;;;;;8.40;5.03;;;;;;;18.49;91.42;100696.84;6033032;28;20030;-67
2023/06/20 01:25:54;;;;;;;7.68;5.18;;;;;;;18.52;89.63;100691.91;6040231;28;20041;-67
2023/06/20 01:29:10;;;;;;;6.57;4.72;;;;;;;18.98;88.52;100682.19;6067898;28;20029;-67
2023/06/20 01:32:10;;;;;;;12.23;5.90;;;;;;;19.21;84.78;100686.41;6051256;28;20033;-67
2023/06/20 01:35:13;;;;;;;8.80;5.15;;;;;;;19.15;84.93;100681.84;6063918;28;20030;-67
2023/06/20 01:38:09;;;;;;;9.68;5.85;;;;;;;19.06;84.65;100672.28;6040244;28;20556;-67
2023/06/20 01:41:05;;;;;;;9.75;5.95;;;;;;;18.84;85.76;100680.50;6049980;28;20134;-67
2023/06/20 01:44:01;;;;;;;7.32;5.18;;;;;;;18.86;86.99;100672.25;6048770;28;20070;-67
2023/06/20 01:46:58;;;;;;;9.30;6.00;;;;;;;18.82;86.51;100671.81;6057405;28;20021;-67
2023/06/20 01:49:54;;;;;;;8.73;5.80;;;;;;;18.77;86.85;100679.63;6055857;28;20049;-67
2023/06/20 01:52:50;;;;;;;8.40;5.75;;;;;;;18.73;87.25;100689.13;6051609;28;20022;-67
2023/06/20 01:55:47;;;;;;;10.02;5.85;;;;;;;18.69;88.18;100671.75;6048028;28;20056;-67
2023/06/20 01:58:43;;;;;;;9.45;6.32;;;;;;;18.68;88.31;100672.78;6030528;28;20026;-67
2023/06/20 02:01:42;;;;;;;9.95;5.70;;;;;;;18.61;88.71;100666.53;6042168;28;20062;-67
2023/06/20 02:04:37;;;;;;;10.80;6.15;;;;;;;18.54;89.62;100679.09;6032824;28;20040;-66
2023/06/20 02:07:35;;;;;;;10.50;6.00;;;;;;;18.63;90.49;100660.97;6030302;28;20030;-67
2023/06/20 02:10:30;;;;;;;9.40;5.82;;;;;;;19.07;88.62;100673.97;6050263;28;20066;-67
2023/06/20 02:13:25;;;;;;;8.73;5.63;;;;;;;19.16;87.23;100667.38;6041954;28;20042;-67
2023/06/20 02:16:21;;;;;;;10.20;6.13;;;;;;;18.76;89.29;100667.22;6048741;28;20038;-67
2023/06/20 02:19:17;;;;;;;10.77;5.95;;;;;;;19.05;89.42;100671.47;6049926;28;20277;-67
2023/06/20 02:22:14;;;;;;;9.60;5.68;;;;;;;19.17;88.60;100679.78;6043326;28;20037;-67
2023/06/20 02:25:16;;;;;;;9.90;6.05;;;;;;;18.88;87.59;100686.31;6041669;28;20034;-67
2023/06/20 02:28:14;;;;;;;11.77;6.22;;;;;;;18.74;89.15;100688.09;6049933;28;20033;-67
2023/06/20 02:31:13;;;;;;;12.85;7.03;;;;;;;18.60;89.09;100664.88;6049456;28;20597;-67
2023/06/20 02:34:13;;;;;;;12.23;6.70;;;;;;;18.54;90.06;100679.09;6047180;28;20026;-67
2023/06/20 02:37:09;;;;;;;9.52;7.10;;;;;;;18.58;89.95;100661.56;6049087;28;20447;-67
2023/06/20 02:40:08;;;;;;;10.95;6.53;;;;;;;18.57;90.08;100678.69;6050544;28;20034;-67
2023/06/20 02:43:06;;;;;;;10.93;6.97;;;;;;;18.39;90.57;100684.56;6019684;28;20037;-67
2023/06/20 02:46:14;;;;;;;9.98;6.03;;;;;;;18.65;89.90;100680.38;6023541;28;20038;-67
2023/06/20 02:49:34;;;;;;;11.90;6.75;;;;;;;18.56;90.07;100681.59;6038628;28;20030;-67
2023/06/20 02:52:41;;;;;;;11.07;7.30;;;;;;;18.53;89.76;100684.69;6039659;28;20120;-67
2023/06/20 02:55:50;;;;;;;11.43;6.70;;;;;;;18.58;90.23;100675.00;6020323;28;20066;-67
2023/06/20 02:58:51;;;;;;;10.88;6.85;;;;;;;18.30;90.56;100661.59;6023977;28;20026;-67
2023/06/20 03:01:47;;;;;;;12.95;6.55;;;;;;;18.49;90.21;100660.06;6056412;28;20029;-67
2023/06/20 03:04:46;;;;;;;12.60;7.20;;;;;;;18.38;90.44;100657.91;6048644;28;20469;-67
2023/06/20 03:07:42;;;;;;;15.18;7.43;;;;;;;18.33;90.99;100657.66;6058363;28;20033;-67
2023/06/20 03:10:37;;;;;;;9.45;6.53;;;;;;;18.29;91.36;100664.47;6047349;28;20097;-67
2023/06/20 03:13:32;;;;;;;10.67;6.73;;;;;;;18.46;91.17;100684.59;6064577;28;20033;-67
2023/06/20 03:16:28;;;;;;;12.57;7.43;;;;;;;18.17;92.60;100666.88;6050298;28;20083;-67
2023/06/20 03:19:23;;;;;;;14.00;7.77;;;;;;;18.36;92.51;100676.06;6039014;28;20374;-67
2023/06/20 03:22:19;;;;;;;11.07;7.57;;;;;;;18.41;92.51;100684.38;6049909;28;20068;-67
2023/06/20 03:25:14;;;;;;;11.65;7.47;;;;;;;18.42;92.25;100688.72;6049415;28;20041;-67
2023/06/20 03:28:09;;;;;;;11.03;7.60;;;;;;;18.47;92.41;100672.84;6046352;28;20052;-67
2023/06/20 03:31:05;;;;;;;11.57;6.90;;;;;;;18.66;92.02;100680.22;6032890;28;20106;-67
2023/06/20 03:34:00;;;;;;;13.00;7.87;;;;;;;18.62;91.12;100687.00;6046673;28;20029;-67
2023/06/20 03:36:55;;;;;;;12.93;7.27;;;;;;;18.74;92.07;100693.47;6036498;28;20726;-67
2023/06/20 03:39:50;;;;;;;12.70;7.67;;;;;;;18.65;92.32;100696.50;6034390;28;20031;-67
2023/06/20 03:42:46;;;;;;;11.50;7.13;;;;;;;18.56;91.45;100693.19;6047786;28;20080;-67
2023/06/20 03:45:41;;;;;;;13.43;7.80;;;;;;;18.58;92.43;100699.19;6034481;28;20640;-67
2023/06/20 03:48:36;;;;;;;12.93;7.87;;;;;;;18.53;92.28;100696.25;6049686;28;20030;-67
2023/06/20 03:51:32;;;;;;;11.70;7.90;;;;;;;18.46;93.00;100687.28;6045076;28;20064;-67
2023/06/20 03:54:27;;;;;;;10.77;7.83;;;;;;;18.57;93.54;100694.81;6035170;28;20350;-67
2023/06/20 03:57:22;;;;;;;14.60;8.33;;;;;;;18.60;93.54;100685.53;6043218;28;20465;-67
2023/06/20 04:00:18;;;;;;;12.97;7.80;;;;;;;18.80;93.37;100690.00;6044926;28;20030;-67
2023/06/20 04:03:13;;;;;;;13.47;8.53;;;;;;;18.67;94.15;100705.22;6034646;28;20036;-67
2023/06/20 04:06:08;;;;;;;13.33;8.33;;;;;;;18.64;94.24;100700.25;6049050;28;20034;-67
2023/06/20 04:09:04;;;;;;;16.00;9.20;;;;;;;18.69;94.10;100701.31;6028552;28;20062;-67
2023/06/20 04:11:59;;;;;;;14.00;8.82;;;;;;;18.85;94.31;100719.78;6047714;28;20034;-66
2023/06/20 04:14:55;;;;;;;13.93;7.93;;;;;;;19.15;93.37;100681.84;6053561;28;20034;-67
2023/06/20 04:17:50;;;;;;;12.60;8.60;;;;;;;19.11;93.21;100696.69;6047662;28;20392;-67
2023/06/20 04:20:45;;;;;;;14.23;8.85;;;;;;;19.05;92.46;100686.78;6025745;28;20037;-67
2023/06/20 04:23:41;;;;;;;13.20;8.03;;;;;;;19.28;92.82;100716.84;6038918;28;20030;-67
2023/06/20 04:26:36;;;;;;;15.33;8.87;;;;;;;19.46;91.58;100684.81;6057155;28;20102;-66
2023/06/20 04:29:31;;;;;;;14.97;9.57;;;;;;;19.30;91.55;100702.16;6056673;28;20025;-67
2023/06/20 04:32:27;;;;;;;15.03;9.23;;;;;;;19.16;93.00;100694.25;6053916;28;20017;-66
2023/06/20 04:35:22;;;;;;;13.00;8.30;;;;;;;19.34;92.93;100699.88;6034898;28;20281;-66
2023/06/20 04:38:17;;;;;;;13.00;8.25;;;;;;;19.49;92.11;100679.03;6045845;28;20049;-67
2023/06/20 04:41:13;;;;;;;14.47;8.63;;;;;;;19.34;92.87;100686.44;6051318;28;20040;-66
2023/06/20 04:44:08;;;;;;;14.20;8.73;;;;;;;19.39;93.07;100678.63;6032652;28;20018;-67
2023/06/20 04:47:03;;;;;;;13.77;8.65;;;;;;;19.59;92.03;100690.25;6049196;28;20160;-66
2023/06/20 04:50:03;;;;;;;14.37;8.23;;;;;;;19.53;92.47;100708.03;6039767;28;20034;-67
2023/06/20 04:52:58;;;;;;;13.52;8.07;;;;;;;19.60;92.53;100711.56;6024265;28;20269;-67
2023/06/20 04:55:54;;;;;;;15.43;9.67;;;;;;;19.52;92.79;100687.53;6024653;28;20398;-65
2023/06/20 04:58:49;;;;;;;15.63;8.98;;;;;;;19.63;92.58;100696.88;6032529;28;20645;-68
2023/06/20 05:01:44;;;;;;;12.73;8.18;;;;;;;19.58;92.75;100716.31;6039151;28;20493;-68
2023/06/20 05:04:40;;;;;;;13.67;8.77;;;;;;;19.52;93.63;100703.69;6029407;28;20488;-68
2023/06/20 05:07:35;;;;;;;15.73;8.90;;;;;;;19.70;92.64;100708.50;6040378;28;20021;-66
2023/06/20 05:10:30;;;;;;;15.67;8.57;;;;;;;19.68;92.93;100715.91;6040297;28;20037;-66
2023/06/20 05:13:25;;;;;;;14.57;9.87;;;;;;;19.49;93.30;100693.31;6052098;28;20526;-66
2023/06/20 05:16:22;;;;;;;14.80;9.27;;;;;;;19.82;93.12;100712.22;6034529;28;20276;-66
2023/06/20 05:19:18;;;;;;;13.73;8.70;;;;;;;19.96;91.75;100708.50;6044003;28;20129;-66
2023/06/20 05:22:13;;;;;;;14.80;8.35;;;;;;;20.18;91.65;100722.56;6022159;28;20084;-66
2023/06/20 05:25:09;;;;;;;16.13;8.67;;;;;;;20.41;89.84;100714.91;6023561;28;20481;-66
2023/06/20 05:28:04;;;;;;;14.85;9.05;;;;;;;20.22;90.74;100723.00;6052292;28;20025;-67
2023/06/20 05:30:59;;;;;;;16.57;9.37;;;;;;;20.12;90.54;100728.78;6052187;28;20026;-67
2023/06/20 05:33:55;;;;;;;18.77;8.77;;;;;;;20.15;90.54;100734.59;6051934;28;20036;-67
2023/06/20 05:36:50;;;;;;;15.30;9.38;;;;;;;20.25;89.56;100723.41;6039147;28;20034;-67
2023/06/20 05:39:45;;;;;;;14.00;8.80;;;;;;;20.38;89.42;100733.38;6052067;28;20460;-67
2023/06/20 05:42:41;;;;;;;14.43;8.70;;;;;;;20.39;89.42;100733.13;6037780;28;20760;-68
2023/06/20 05:45:37;;;;;;;16.23;8.73;;;;;;;20.43;88.48;100730.88;6024945;28;20269;-67
2023/06/20 05:48:33;;;;;;;12.52;7.70;;;;;;;20.27;89.94;100740.22;6048285;28;20025;-68
2023/06/20 05:51:29;;;;;;;16.38;8.88;;;;;;;20.22;89.74;100733.75;6052176;28;20025;-67
2023/06/20 05:54:24;;;;;;;15.48;8.75;;;;;;;20.31;89.97;100748.69;6051085;28;20065;-67
2023/06/20 05:57:21;;;;;;;14.05;8.60;;;;;;;20.28;89.06;100749.09;6040659;28;20034;-67
2023/06/20 06:00:17;;;;;;;16.25;8.32;;;;;;;20.10;89.69;100745.16;6049833;28;20026;-67
2023/06/20 06:03:13;;;;;;;13.35;7.90;;;;;;;20.04;90.67;100743.28;6051817;28;20028;-68
2023/06/20 06:06:11;;;;;;;18.30;8.55;;;;;;;19.89;91.77;100766.91;6051226;28;20062;-68
2023/06/20 06:09:06;;;;;;;14.27;8.32;;;;;;;19.87;93.23;100805.78;6051390;28;20034;-68
2023/06/20 06:12:02;;;;;;;15.73;9.03;;;;;;;19.76;95.59;100825.25;6051822;28;20036;-68
2023/06/20 06:14:57;;;;;;;17.33;8.93;;;;;;;19.74;97.01;100805.75;6043756;28;20029;-67
2023/06/20 06:17:53;;;;;;;13.77;8.80;;;;;;;19.56;97.75;100795.59;6051581;28;20069;-66
2023/06/20 06:20:48;;;;;;;15.33;9.83;;;;;;;19.51;98.17;100820.38;6051373;28;20041;-67
2023/06/20 06:23:47;;;;;;;17.43;11.00;;;;;;;19.47;99.95;100794.09;6050005;28;20468;-67
2023/06/20 06:26:42;;;;;;;15.00;9.63;;;;;;;19.43;99.52;100792.84;6051359;28;20346;-67
2023/06/20 06:29:39;;;;;;;19.43;9.70;;;;;;;19.45;100.00;100788.09;6051114;28;20034;-66
2023/06/20 06:32:34;;;;;;;17.48;9.95;;;;;;;19.44;100.00;100800.72;6037932;28;20120;-66
2023/06/20 06:35:30;;;;;;;19.27;11.57;;;;;;;19.41;100.00;100800.28;6042732;28;20371;-67
2023/06/20 06:38:26;;;;;;;16.10;9.50;;;;;;;19.42;100.00;100797.41;6044298;28;20025;-67
2023/06/20 06:41:21;;;;;;;15.73;9.15;;;;;;;19.39;99.36;100791.59;6048138;28;20018;-67
2023/06/20 06:44:17;;;;;;;17.77;10.27;;;;;;;19.38;99.27;100798.81;6039071;28;20037;-67
2023/06/20 06:47:13;;;;;;;17.10;10.00;;;;;;;19.25;100.00;100787.16;6058121;28;20028;-66
2023/06/20 06:50:08;;;;;;;18.55;10.07;;;;;;;19.07;100.00;100792.25;6047280;28;20033;-65
2023/06/20 06:53:04;;;;;;;20.63;10.95;;;;;;;19.13;100.00;100796.84;6050927;28;20049;-66
2023/06/20 06:55:59;;;;;;;17.85;10.57;;;;;;;18.82;100.00;100779.28;6049833;28;20030;-66
2023/06/20 06:58:57;;;;;;;21.53;12.20;;;;;;;18.81;100.00;100774.09;6050497;28;20029;-65
2023/06/20 07:01:53;;;;;;;20.70;13.05;;;;;;;18.82;100.00;100789.22;6050580;28;20175;-65
2023/06/20 07:04:48;;;;;;;23.27;13.13;;;;;;;18.80;100.00;100781.34;6039632;28;20037;-64
2023/06/20 07:07:43;;;;;;;20.53;13.30;;;;;;;18.79;100.00;100768.94;6046624;28;20135;-65
2023/06/20 07:10:39;;;;;;;24.57;13.13;;;;;;;18.75;100.00;100773.03;6050438;28;20264;-65
2023/06/20 07:13:34;;;;;;;25.10;13.37;;;;;;;18.90;100.00;100784.50;6049527;28;20289;-65
2023/06/20 07:16:31;;;;;;;21.70;13.03;;;;;;;18.85;100.00;100762.78;6049885;28;20033;-65
2023/06/20 07:19:27;;;;;;;23.00;12.82;;;;;;;18.98;100.00;100770.91;6050004;28;20029;-65
2023/06/20 07:22:22;;;;;;;21.03;12.57;;;;;;;19.02;100.00;100749.84;6027609;28;20084;-65
2023/06/20 07:25:19;;;;;;;20.20;11.77;;;;;;;19.03;100.00;100760.38;6043637;28;20268;-65
2023/06/20 07:28:14;;;;;;;21.00;12.98;;;;;;;19.13;100.00;100768.09;6049941;28;20246;-64
2023/06/20 07:31:19;;;;;;;24.42;12.27;;;;;;;19.17;100.00;100749.69;6050231;28;20034;-64
2023/06/20 07:34:14;;;;;;;20.73;13.02;;;;;;;19.16;100.00;100753.41;6048369;28;20037;-64
2023/06/20 07:37:10;;;;;;;20.03;11.97;;;;;;;19.33;100.00;100762.75;6028274;28;20035;-64
2023/06/20 07:40:07;;;;;;;18.63;12.02;;;;;;;19.38;100.00;100746.88;6036794;28;20462;-64
2023/06/20 07:43:02;;;;;;;18.25;11.88;;;;;;;19.72;100.00;100746.78;6034482;28;20022;-64
2023/06/20 07:45:57;;;;;;;18.43;12.47;;;;;;;19.95;100.00;100760.66;6047591;28;20369;-65
2023/06/20 07:48:53;;;;;;;18.43;11.53;;;;;;;19.84;100.00;100745.13;6049390;28;20032;-65
2023/06/20 07:51:48;;;;;;;20.50;12.27;;;;;;;19.80;100.00;100741.19;6049868;28;20022;-65
2023/06/20 07:54:43;;;;;;;23.13;13.27;;;;;;;20.08;100.00;100741.81;6034156;28;20483;-65
2023/06/20 07:57:39;;;;;;;19.07;12.27;;;;;;;20.24;100.00;100739.75;6049564;28;20303;-65
2023/06/20 08:00:34;;;;;;;21.23;12.27;;;;;;;20.33;100.00;100722.38;6049672;28;20113;-65
2023/06/20 08:03:29;;;;;;;19.43;12.57;;;;;;;20.36;100.00;100727.34;6048827;28;20038;-65
2023/06/20 08:06:24;;;;;;;23.50;13.20;;;;;;;20.54;100.00;100738.31;6049424;28;20105;-65
2023/06/20 08:09:20;;;;;;;20.30;11.57;;;;;;;20.89;100.00;100726.19;6049294;28;20038;-66
2023/06/20 08:12:15;;;;;;;21.63;13.27;;;;;;;21.18;100.00;100741.03;6045731;28;20030;-66
2023/06/20 08:15:11;;;;;;;17.73;12.40;;;;;;;21.16;100.00;100735.88;6024524;28;20041;-65
2023/06/20 08:18:06;;;;;;;17.38;11.15;;;;;;;21.28;100.00;100714.41;6049216;28;20040;-65
2023/06/20 08:21:01;;;;;;;17.70;11.23;;;;;;;21.22;100.00;100716.13;6049472;28;20026;-66
2023/06/20 08:23:57;;;;;;;16.77;11.43;;;;;;;21.25;98.50;100731.06;6048605;28;20261;-65
2023/06/20 08:26:52;;;;;;;15.53;10.17;;;;;;;21.36;98.97;100712.28;6049507;28;20037;-66
2023/06/20 08:29:47;;;;;;;17.30;9.67;;;;;;;21.43;95.36;100716.84;6027129;28;20040;-65
2023/06/20 08:32:44;;;;;;;15.20;10.23;;;;;;;22.20;92.26;100719.22;6049072;28;20369;-66
2023/06/20 08:35:39;;;;;;;11.75;7.40;;;;;;;22.18;89.25;100721.28;6039154;28;20068;-66
2023/06/20 08:38:34;;;;;;;13.20;9.13;;;;;;;22.03;91.69;100705.44;6043609;28;20409;-67
2023/06/20 08:41:30;;;;;;;11.30;8.10;;;;;;;21.99;89.48;100706.91;6047363;28;20049;-66
2023/06/20 08:44:26;;;;;;;11.43;7.47;;;;;;;22.04;88.81;100715.16;6039429;28;20109;-66
2023/06/20 08:47:21;;;;;;;11.50;7.90;;;;;;;22.19;89.78;100702.16;6034366;28;20029;-66
2023/06/20 08:50:16;;;;;;;12.30;8.63;;;;;;;22.44;88.16;100692.16;6050871;28;20704;-66
2023/06/20 08:53:12;;;;;;;14.60;8.80;;;;;;;22.52;88.20;100689.16;6050127;28;20026;-66
2023/06/20 08:56:07;;;;;;;11.50;7.72;;;;;;;22.51;87.94;100700.19;6052821;28;20046;-66
2023/06/20 08:59:02;;;;;;;11.77;8.40;;;;;;;22.26;86.79;100691.28;6053207;28;20041;-66
2023/06/20 09:01:57;;;;;;;10.37;7.27;;;;;;;22.43;86.26;100703.16;6048294;28;20269;-67
2023/06/20 09:05:05;;;;;;;12.60;7.70;;;;;;;22.60;86.34;100714.22;6052425;28;20021;-66
2023/06/20 09:08:01;;;;;;;13.07;8.05;;;;;;;22.67;86.48;100715.84;6052906;28;20013;-66
2023/06/20 09:11:10;;;;;;;12.57;8.50;;;;;;;22.51;85.34;100697.47;6053086;28;20547;-67
2023/06/20 09:14:06;;;;;;;10.88;7.60;;;;;;;22.71;84.06;100705.41;6052012;28;20385;-66
2023/06/20 09:17:03;;;;;;;11.07;6.83;;;;;;;22.85;82.37;100696.09;6053072;28;20042;-66
2023/06/20 09:19:58;;;;;;;11.20;7.93;;;;;;;22.62;84.85;100706.72;6015994;28;20118;-66
2023/06/20 09:22:53;;;;;;;11.33;7.57;;;;;;;22.87;83.30;100704.78;6048704;28;20033;-66
2023/06/20 09:25:48;;;;;;;10.75;6.85;;;;;;;22.76;84.20;100713.66;6052023;28;20084;-67
2023/06/20 09:28:44;;;;;;;9.30;6.17;;;;;;;22.94;81.80;100709.06;6067659;28;20033;-66
2023/06/20 09:31:44;;;;;;;10.35;6.75;;;;;;;22.75;82.81;100698.47;6052614;28;20128;-67
2023/06/20 09:34:39;;;;;;;9.15;6.30;;;;;;;23.02;82.21;100697.09;6041647;28;20038;-67
2023/06/20 09:37:42;;;;;;;9.13;6.75;;;;;;;23.29;81.22;100692.19;6039379;28;20060;-66
2023/06/20 09:40:44;;;;;;;11.57;7.20;;;;;;;23.43;80.79;100691.78;6055940;28;20021;-66
2023/06/20 09:43:40;;;;;;;8.80;5.78;;;;;;;23.62;79.33;100693.38;6051382;28;20483;-66
2023/06/20 09:46:35;;;;;;;9.40;6.50;;;;;;;23.90;78.14;100698.16;6065352;28;20038;-66
2023/06/20 09:49:31;;;;;;;10.07;6.57;;;;;;;23.77;77.77;100700.25;6052126;28;20116;-67
2023/06/20 09:52:37;;;;;;;12.27;6.97;;;;;;;24.26;77.07;100716.13;6030327;28;20274;-67
2023/06/20 09:55:35;;;;;;;13.13;6.97;;;;;;;23.92;77.01;100703.31;6024995;28;20034;-66
2023/06/20 09:58:31;;;;;;;9.98;5.95;;;;;;;24.18;74.55;100702.94;6051141;28;20041;-68
2023/06/20 10:01:28;;;;;;;8.15;6.13;;;;;;;23.84;75.95;100706.38;6050479;28;20029;-67
2023/06/20 10:04:24;;;;;;;7.38;5.82;;;;;;;24.12;75.89;100712.00;6049775;28;20030;-67
2023/06/20 10:07:21;;;;;;;8.02;5.90;;;;;;;24.50;73.46;100706.09;6051657;28;20461;-67
2023/06/20 10:10:17;;;;;;;7.50;5.90;;;;;;;24.66;72.76;100708.06;6039547;28;20084;-67
2023/06/20 10:13:13;;;;;;;8.10;5.72;;;;;;;24.76;71.95;100698.25;6043010;28;20381;-67
2023/06/20 10:16:08;;;;;;;9.18;5.88;;;;;;;24.93;70.55;100708.41;6051105;28;20111;-67
2023/06/20 10:19:17;;;;;;;7.43;5.15;;;;;;;25.24;70.70;100703.34;6051127;28;20483;-66
2023/06/20 10:22:12;;;;;;;8.07;5.72;;;;;;;25.19;69.87;100705.16;6050269;28;20038;-67
2023/06/20 10:25:12;;;;;;;9.33;6.87;;;;;;;25.29;70.30;100687.16;6031838;28;20030;-67
2023/06/20 10:28:09;;;;;;;6.82;5.30;;;;;;;26.58;62.95;100682.50;6025088;28;20296;-67
2023/06/20 10:31:04;;;;;;;7.78;5.53;;;;;;;26.70;63.30;100669.59;6048777;28;20045;-67
2023/06/20 10:33:59;;;;;;;8.45;6.50;;;;;;;26.68;64.18;100671.75;6048426;28;20495;-67
2023/06/20 10:37:09;;;;;;;7.83;6.30;;;;;;;26.24;65.60;100664.63;6035785;28;20030;-67
2023/06/20 10:40:06;;;;;;;8.75;6.05;;;;;;;25.64;67.06;100665.28;6048907;28;20028;-67
2023/06/20 10:43:08;;;;;;;8.52;6.50;;;;;;;25.95;65.62;100667.41;6037505;28;20030;-67
2023/06/20 10:46:03;;;;;;;7.78;5.85;;;;;;;25.39;67.80;100662.91;6050156;28;20484;-67
2023/06/20 10:48:59;;;;;;;8.13;6.10;;;;;;;25.31;69.21;100665.19;6050966;28;20030;-66
2023/06/20 10:51:55;;;;;;;7.97;6.30;;;;;;;25.44;69.06;100667.59;6050641;28;20034;-67
2023/06/20 10:54:50;;;;;;;7.97;6.22;;;;;;;25.54;68.93;100654.25;6050159;28;20272;-67
2023/06/20 10:57:47;;;;;;;9.70;6.80;;;;;;;25.58;69.95;100658.09;6050706;28;20080;-67
2023/06/20 11:00:42;;;;;;;11.23;6.57;;;;;;;25.42;69.68;100650.72;6043860;28;20054;-67
2023/06/20 11:03:39;;;;;;;8.80;6.47;;;;;;;26.65;66.63;100650.50;6050081;28;20040;-67
2023/06/20 11:06:34;;;;;;;10.05;7.00;;;;;;;26.36;66.90;100644.38;6050278;28;20541;-67
2023/06/20 11:09:30;;;;;;;10.32;6.38;;;;;;;25.95;67.54;100653.81;6050111;28;20022;-67
2023/06/20 11:12:25;;;;;;;9.77;6.43;;;;;;;25.82;68.30;100640.56;6050231;28;20038;-67
2023/06/20 11:15:26;;;;;;;10.83;7.17;;;;;;;25.26;70.54;100651.50;6063248;28;20037;-66
2023/06/20 11:18:22;;;;;;;8.10;5.90;;;;;;;25.75;66.13;100642.63;6038115;28;20057;-67
2023/06/20 11:21:17;;;;;;;8.13;5.88;;;;;;;26.21;66.16;100637.91;6049812;28;20036;-67
2023/06/20 11:24:12;;;;;;;8.20;6.20;;;;;;;26.77;64.19;100620.44;6048863;28;20358;-67
2023/06/20 11:27:14;;;;;;;6.77;5.43;;;;;;;27.30;61.84;100614.22;6050161;28;20038;-66
2023/06/20 11:30:10;;;;;;;7.60;5.18;;;;;;;27.80;58.87;100620.13;6050242;28;20121;-67
2023/06/20 11:33:12;;;;;;;8.35;5.47;;;;;;;27.92;57.08;100623.47;6036403;28;20018;-67
2023/06/20 11:36:09;;;;;;;7.78;4.68;;;;;;;28.00;57.86;100636.63;6018050;28;20038;-67
2023/06/20 11:39:09;;;;;;;6.95;4.57;;;;;;;27.90;56.36;100625.66;6048055;28;20092;-67
2023/06/20 11:42:16;;;;;;;6.90;4.50;;;;;;;26.95;58.87;100623.66;6047777;28;20042;-67
2023/06/20 11:45:12;;;;;;;6.47;4.35;;;;;;;26.67;61.48;100625.72;6049054;28;20376;-67
2023/06/20 11:48:09;;;;;;;7.70;4.85;;;;;;;26.86;60.37;100632.53;6049693;28;20030;-67
2023/06/20 11:51:06;;;;;;;8.13;5.40;;;;;;;26.87;60.25;100621.41;6050091;28;20045;-68
2023/06/20 11:54:02;;;;;;;5.93;4.45;;;;;;;26.10;62.97;100620.59;6049128;28;20029;-67
2023/06/20 11:56:57;;;;;;;7.35;4.35;;;;;;;26.02;62.89;100621.84;6049439;28;20052;-67
2023/06/20 11:59:54;;;;;;;5.95;4.30;;;;;;;25.73;62.40;100614.91;6036380;28;20026;-67
2023/06/20 12:02:50;;;;;;;5.93;4.13;;;;;;;26.53;60.20;100606.25;6030811;28;20030;-67
2023/06/20 12:05:45;;;;;;;5.30;4.00;;;;;;;27.67;58.17;100593.28;6049178;28;20449;-67
2023/06/20 12:08:52;;;;;;;7.13;4.30;;;;;;;27.64;58.38;100605.53;6021433;28;20022;-67
2023/06/20 12:11:48;;;;;;;5.82;3.53;;;;;;;27.83;55.23;100600.50;6049877;28;20391;-68
2023/06/20 12:14:47;;;;;;;6.45;3.90;;;;;;;28.31;55.18;100600.28;6054912;28;20042;-67
2023/06/20 12:17:42;;;;;;;5.25;3.08;;;;;;;27.91;54.29;100578.19;6053543;28;20026;-67
2023/06/20 12:20:37;;;;;;;5.80;3.20;;;;;;;27.79;55.69;100583.03;6065128;28;20032;-67
2023/06/20 12:23:34;;;;;;;3.93;3.30;;;;;;;27.84;55.36;100591.25;6044351;28;20034;-67
2023/06/20 12:26:29;;;;;;;4.38;2.88;;;;;;;27.50;54.61;100595.34;6054289;28;20362;-67
2023/06/20 12:29:25;;;;;;;4.37;3.10;;;;;;;27.87;53.75;100596.19;6052881;28;20041;-67
2023/06/20 12:32:20;;;;;;;4.50;3.17;;;;;;;27.91;52.46;100594.56;6053769;28;20156;-67
2023/06/20 12:35:15;;;;;;;4.93;3.93;;;;;;;27.50;54.57;100595.34;6048943;28;20034;-67
2023/06/20 12:38:11;;;;;;;4.83;3.57;;;;;;;27.37;54.77;100587.59;6044748;28;20525;-68
2023/06/20 12:41:06;;;;;;;4.95;3.33;;;;;;;27.59;54.26;100582.88;6047358;28;20034;-68
2023/06/20 12:44:02;;;;;;;8.70;3.80;;;;;;;28.52;52.11;100594.91;6052022;28;20109;-68
2023/06/20 12:46:57;;;;;;;5.97;4.13;;;;;;;28.04;54.04;100594.16;6053527;28;20056;-67
2023/06/20 12:49:52;;;;;;;6.40;4.57;;;;;;;28.42;54.05;100600.34;6053678;28;20092;-68
2023/06/20 12:52:48;;;;;;;5.30;3.85;;;;;;;28.53;51.90;100577.47;6053222;28;20022;-67
2023/06/20 12:55:44;;;;;;;5.68;4.30;;;;;;;27.83;55.85;100580.63;6052505;28;20397;-68
2023/06/20 12:58:39;;;;;;;6.05;4.63;;;;;;;27.36;56.75;100583.22;6027917;28;20091;-67
2023/06/20 13:01:35;;;;;;;5.43;4.23;;;;;;;27.38;56.48;100567.41;6053079;28;20453;-67
2023/06/20 13:04:30;;;;;;;6.90;4.20;;;;;;;27.77;56.84;100574.31;6052768;28;20105;-68
2023/06/20 13:07:25;;;;;;;5.17;4.17;;;;;;;28.58;53.45;100563.81;6052931;28;20158;-68
2023/06/20 13:10:21;;;;;;;6.35;4.30;;;;;;;28.84;53.01;100560.09;6053198;28;20454;-68
2023/06/20 13:13:17;;;;;;;5.45;4.13;;;;;;;29.10;53.29;100563.69;6039615;28;20081;-68
2023/06/20 13:16:13;;;;;;;5.83;4.63;;;;;;;29.12;51.16;100573.25;6047957;28;20034;-68
2023/06/20 13:19:08;;;;;;;5.05;4.15;;;;;;;28.25;53.68;100563.16;6052806;28;20091;-68
2023/06/20 13:22:03;;;;;;;5.90;4.17;;;;;;;27.85;54.79;100551.19;6052764;28;20651;-68
2023/06/20 13:24:59;;;;;;;5.35;4.45;;;;;;;27.97;55.39;100565.41;6032578;28;20652;-68
2023/06/20 13:27:55;;;;;;;6.20;4.63;;;;;;;28.64;53.77;100555.44;6052756;28;20062;-68
2023/06/20 13:30:50;;;;;;;5.05;4.15;;;;;;;28.75;52.38;100556.28;6045476;28;20034;-68
2023/06/20 13:33:45;;;;;;;6.47;4.53;;;;;;;28.62;52.35;100540.38;6050566;28;20030;-67
2023/06/20 13:36:43;;;;;;;5.67;4.30;;;;;;;28.15;54.18;100545.91;6039165;28;20111;-68